Time;durP1;ratioP1;P1;durP2;ratioP2;P2;SDS_P1;SDS_P2;PMS_P1;PMS_P2;Temp;Humidity;BMP_temperature;BMP_pressure;BME280_temperature;BME280_humidity;BME280_pressure;Samples;Min_cycle;Max_cycle;Signal;HPM_P1;HPM_P2
2024/03/08 00:01:50;;;;;;;27.95;14.57;;;;;;;-1.84;100.00;98853.94;6104880;19;20074;-71
2024/03/08 00:03:52;;;;;;;28.45;14.95;;;;;;;-1.88;100.00;98859.16;6108429;19;20011;-71
2024/03/08 00:05:52;;;;;;;28.35;14.02;;;;;;;-1.90;100.00;98858.63;6107909;19;20003;-70
2024/03/08 00:07:53;;;;;;;27.23;13.98;;;;;;;-1.93;100.00;98855.66;6107461;19;19998;-71
2024/03/08 00:09:53;;;;;;;28.42;13.50;;;;;;;-1.98;100.00;98856.56;6106719;19;20011;-70
2024/03/08 00:11:53;;;;;;;30.20;15.20;;;;;;;-2.04;100.00;98847.66;6107032;19;20003;-71
2024/03/08 00:13:53;;;;;;;26.00;13.38;;;;;;;-2.05;100.00;98850.66;6100796;19;20070;-70
2024/03/08 00:15:54;;;;;;;28.38;13.75;;;;;;;-2.05;100.00;98854.16;6093446;19;19999;-70
2024/03/08 00:17:54;;;;;;;28.65;14.82;;;;;;;-2.00;100.00;98847.88;6093527;19;19995;-71
2024/03/08 00:19:55;;;;;;;22.70;13.00;;;;;;;-1.97;100.00;98852.75;6093709;19;20013;-70
2024/03/08 00:21:55;;;;;;;27.35;13.98;;;;;;;-1.96;100.00;98846.22;6090627;19;20433;-70
2024/03/08 00:23:55;;;;;;;32.33;14.10;;;;;;;-1.99;100.00;98853.03;6093265;19;20038;-70
2024/03/08 00:25:56;;;;;;;25.55;13.77;;;;;;;-1.99;100.00;98849.47;6091793;19;20023;-70
2024/03/08 00:27:56;;;;;;;26.85;14.23;;;;;;;-2.02;100.00;98855.50;6092028;19;20013;-71
2024/03/08 00:30:00;;;;;;;26.05;13.35;;;;;;;-2.11;100.00;98843.66;6093605;19;20010;-71
2024/03/08 00:32:01;;;;;;;25.63;13.25;;;;;;;-2.13;100.00;98843.13;6091717;19;20008;-71
2024/03/08 00:34:01;;;;;;;27.90;14.60;;;;;;;-2.17;100.00;98844.78;6091175;19;20002;-71
2024/03/08 00:36:01;;;;;;;29.95;13.90;;;;;;;-2.19;100.00;98847.78;6091913;19;20476;-71
2024/03/08 00:38:02;;;;;;;24.13;13.52;;;;;;;-2.14;100.00;98836.09;6093312;19;20006;-71
2024/03/08 00:40:03;;;;;;;27.83;15.20;;;;;;;-2.16;100.00;98835.56;6091491;19;20021;-70
2024/03/08 00:42:03;;;;;;;26.27;14.75;;;;;;;-2.18;100.00;98835.84;6091198;19;20086;-71
2024/03/08 00:44:04;;;;;;;30.13;14.77;;;;;;;-2.19;100.00;98834.22;6091473;19;19995;-70
2024/03/08 00:46:04;;;;;;;28.35;15.20;;;;;;;-2.19;100.00;98841.56;6092963;19;20003;-70
2024/03/08 00:48:05;;;;;;;27.98;15.00;;;;;;;-2.19;100.00;98823.41;6091406;19;20039;-71
2024/03/08 00:50:06;;;;;;;27.45;14.82;;;;;;;-2.27;100.00;98824.81;6094839;19;20002;-71
2024/03/08 00:52:10;;;;;;;31.73;16.20;;;;;;;-2.31;100.00;98826.50;6096094;19;20518;-70
2024/03/08 00:54:11;;;;;;;31.40;15.85;;;;;;;-2.35;100.00;98822.72;6097687;19;20002;-70
2024/03/08 00:56:11;;;;;;;28.40;15.85;;;;;;;-2.37;100.00;98824.91;6096415;19;20124;-70
2024/03/08 00:58:12;;;;;;;26.45;14.07;;;;;;;-2.36;100.00;98825.72;6096382;19;20002;-71
2024/03/08 01:00:13;;;;;;;26.10;14.55;;;;;;;-2.39;100.00;98821.69;6096518;19;20320;-71
2024/03/08 01:02:14;;;;;;;35.33;16.48;;;;;;;-2.43;100.00;98809.78;6095325;19;20016;-71
2024/03/08 01:04:14;;;;;;;27.58;14.75;;;;;;;-2.46;100.00;98813.09;6095399;19;20991;-70
2024/03/08 01:06:14;;;;;;;27.38;14.52;;;;;;;-2.49;100.00;98805.50;6096825;19;19995;-71
2024/03/08 01:08:15;;;;;;;28.58;15.25;;;;;;;-2.49;100.00;98802.78;6096054;19;19995;-71
2024/03/08 01:10:15;;;;;;;28.65;14.45;;;;;;;-2.49;100.00;98810.13;6096894;19;20010;-71
2024/03/08 01:12:15;;;;;;;27.60;15.05;;;;;;;-2.48;100.00;98804.44;6094205;19;20024;-71
2024/03/08 01:14:16;;;;;;;27.90;15.45;;;;;;;-2.49;100.00;98805.50;6102205;19;20010;-71
2024/03/08 01:16:17;;;;;;;28.90;15.40;;;;;;;-2.51;100.00;98801.47;6110703;19;20325;-71
2024/03/08 01:18:17;;;;;;;29.75;14.98;;;;;;;-2.51;100.00;98801.47;6110694;19;20016;-71
2024/03/08 01:20:17;;;;;;;29.10;15.75;;;;;;;-2.53;100.00;98796.34;6111234;19;20006;-71
2024/03/08 01:22:18;;;;;;;33.85;16.13;;;;;;;-2.53;100.00;98803.66;6108149;19;20006;-71
2024/03/08 01:24:18;;;;;;;29.48;15.20;;;;;;;-2.50;100.00;98787.63;6110077;19;20387;-71
2024/03/08 01:26:18;;;;;;;27.33;14.50;;;;;;;-2.53;100.00;98792.81;6109266;19;19999;-71
2024/03/08 01:28:18;;;;;;;25.75;13.88;;;;;;;-2.57;100.00;98777.13;6110076;19;20021;-70
2024/03/08 01:30:19;;;;;;;25.50;13.90;;;;;;;-2.56;100.00;98783.38;6110617;19;20383;-71
2024/03/08 01:32:19;;;;;;;29.35;14.68;;;;;;;-2.57;100.00;98792.56;6107771;19;20002;-71
2024/03/08 01:34:20;;;;;;;24.77;13.75;;;;;;;-2.62;100.00;98779.09;6110551;19;20098;-71
2024/03/08 01:36:21;;;;;;;30.67;14.73;;;;;;;-2.62;100.00;98782.59;6109471;19;20137;-71
2024/03/08 01:38:21;;;;;;;26.30;14.23;;;;;;;-2.63;100.00;98780.19;6110097;19;20466;-71
2024/03/08 01:40:22;;;;;;;29.33;13.30;;;;;;;-2.73;100.00;98766.72;6110141;19;20015;-71
2024/03/08 01:42:22;;;;;;;26.73;14.80;;;;;;;-2.84;100.00;98774.91;6109377;19;20010;-71
2024/03/08 01:44:23;;;;;;;28.58;15.45;;;;;;;-2.89;100.00;98774.97;6110265;19;20017;-71
2024/03/08 01:46:24;;;;;;;26.77;13.85;;;;;;;-2.88;100.00;98765.75;6110096;19;20462;-71
2024/03/08 01:48:24;;;;;;;28.00;14.60;;;;;;;-2.87;100.00;98766.56;6108655;19;20003;-71
2024/03/08 01:50:25;;;;;;;30.15;15.40;;;;;;;-2.89;100.00;98768.75;6110107;19;20014;-71
2024/03/08 01:52:26;;;;;;;27.95;14.23;;;;;;;-2.96;100.00;98771.78;6109300;19;20041;-71
2024/03/08 01:54:26;;;;;;;32.45;14.88;;;;;;;-3.03;100.00;98768.59;6110457;19;20700;-71
2024/03/08 01:56:27;;;;;;;30.23;14.10;;;;;;;-3.11;100.00;98766.47;6109113;19;20016;-71
2024/03/08 01:58:28;;;;;;;25.75;13.70;;;;;;;-3.15;100.00;98768.13;6109654;19;20007;-71
2024/03/08 02:00:29;;;;;;;27.20;12.98;;;;;;;-3.13;100.00;98761.34;6108330;19;20236;-71
2024/03/08 02:02:32;;;;;;;27.23;12.95;;;;;;;-3.16;100.00;98753.78;6107201;19;20007;-71
2024/03/08 02:04:32;;;;;;;25.70;13.68;;;;;;;-3.19;100.00;98757.06;6108971;19;20036;-71
2024/03/08 02:06:33;;;;;;;26.38;13.80;;;;;;;-3.17;100.00;98754.06;6109496;19;20002;-71
2024/03/08 02:08:34;;;;;;;24.38;13.20;;;;;;;-3.19;100.00;98751.63;6109563;19;20006;-71
2024/03/08 02:10:35;;;;;;;24.00;12.63;;;;;;;-3.16;100.00;98751.06;6108645;19;20062;-71
2024/03/08 02:12:35;;;;;;;29.40;14.60;;;;;;;-3.23;100.00;98747.06;6107813;19;20022;-71
2024/03/08 02:14:36;;;;;;;25.80;13.40;;;;;;;-3.24;100.00;98753.56;6109759;19;20002;-71
2024/03/08 02:16:37;;;;;;;26.73;13.02;;;;;;;-3.27;100.00;98735.19;6110846;19;20266;-71
2024/03/08 02:18:39;;;;;;;28.55;14.65;;;;;;;-3.29;100.00;98745.50;6110130;19;20450;-70
2024/03/08 02:20:39;;;;;;;25.42;14.07;;;;;;;-3.32;100.00;98749.56;6110105;19;20002;-71
2024/03/08 02:22:39;;;;;;;27.90;13.48;;;;;;;-3.31;100.00;98737.66;6108488;19;20334;-70
2024/03/08 02:24:41;;;;;;;30.70;15.48;;;;;;;-3.31;100.00;98731.41;6108952;19;20502;-70
2024/03/08 02:26:42;;;;;;;32.55;15.95;;;;;;;-3.35;100.00;98730.38;6110207;19;20040;-70
2024/03/08 02:28:44;;;;;;;34.13;15.27;;;;;;;-3.33;100.00;98733.59;6109691;19;20003;-70
2024/03/08 02:30:48;;;;;;;28.60;14.57;;;;;;;-3.40;100.00;98737.41;6109978;19;20028;-70
2024/03/08 02:32:48;;;;;;;30.92;15.52;;;;;;;-3.52;100.00;98726.16;6109072;19;20002;-71
2024/03/08 02:34:49;;;;;;;35.97;16.60;;;;;;;-3.53;100.00;98729.16;6109901;19;20017;-71
2024/03/08 02:36:49;;;;;;;29.67;14.05;;;;;;;-3.59;100.00;98722.94;6109752;19;20036;-71
2024/03/08 02:38:50;;;;;;;28.65;14.73;;;;;;;-3.60;100.00;98723.22;6109288;19;20010;-71
2024/03/08 02:40:52;;;;;;;33.72;15.40;;;;;;;-3.63;100.00;98726.50;6108714;19;20013;-71
2024/03/08 02:42:52;;;;;;;29.08;14.82;;;;;;;-3.61;100.00;98719.72;6108717;19;20467;-71
2024/03/08 02:44:53;;;;;;;30.23;14.93;;;;;;;-3.62;100.00;98723.53;6109583;19;20010;-70
2024/03/08 02:46:55;;;;;;;40.67;17.40;;;;;;;-3.65;100.00;98721.34;6109895;19;20034;-71
2024/03/08 02:48:55;;;;;;;32.88;16.15;;;;;;;-3.69;100.00;98714.91;6109188;19;20357;-71
2024/03/08 02:50:55;;;;;;;32.55;15.20;;;;;;;-3.64;100.00;98714.88;6108347;19;20017;-71
2024/03/08 02:52:56;;;;;;;28.67;15.07;;;;;;;-3.66;100.00;98714.34;6108515;19;20334;-71
2024/03/08 02:54:56;;;;;;;30.73;15.43;;;;;;;-3.62;100.00;98712.69;6109366;19;20022;-71
2024/03/08 02:56:56;;;;;;;31.35;16.17;;;;;;;-3.64;100.00;98722.16;6109082;19;20007;-71
2024/03/08 02:58:57;;;;;;;32.90;15.65;;;;;;;-3.65;100.00;98707.81;6109307;19;20007;-71
2024/03/08 03:00:57;;;;;;;33.28;15.05;;;;;;;-3.64;100.00;98712.19;6107721;19;20338;-71
2024/03/08 03:02:57;;;;;;;28.83;15.00;;;;;;;-3.65;100.00;98702.41;6108540;19;20010;-71
2024/03/08 03:04:58;;;;;;;31.85;15.30;;;;;;;-3.62;100.00;98704.59;6109393;19;20355;-71
2024/03/08 03:06:58;;;;;;;28.10;14.95;;;;;;;-3.60;100.00;98707.81;6109737;19;20564;-71
2024/03/08 03:08:59;;;;;;;29.75;15.65;;;;;;;-3.60;100.00;98705.09;6107088;19;20074;-71
2024/03/08 03:10:59;;;;;;;29.05;13.68;;;;;;;-3.56;100.00;98706.16;6107806;19;20552;-71
2024/03/08 03:12:59;;;;;;;31.45;16.15;;;;;;;-3.56;100.00;98697.22;6107690;19;19998;-71
2024/03/08 03:14:59;;;;;;;27.13;14.13;;;;;;;-3.58;100.00;98691.28;6107605;19;20030;-71
2024/03/08 03:17:00;;;;;;;26.02;14.73;;;;;;;-3.57;100.00;98696.41;6105215;19;19999;-71
2024/03/08 03:19:01;;;;;;;28.45;14.82;;;;;;;-3.57;100.00;98693.72;6108551;19;20076;-71
2024/03/08 03:21:07;;;;;;;29.60;15.82;;;;;;;-3.63;100.00;98700.28;6106983;19;20103;-71
2024/03/08 03:23:08;;;;;;;29.42;15.55;;;;;;;-3.65;100.00;98696.19;6106830;19;20002;-71
2024/03/08 03:25:09;;;;;;;25.65;14.20;;;;;;;-3.74;100.00;98691.38;6108357;19;19998;-71
2024/03/08 03:27:12;;;;;;;24.58;13.57;;;;;;;-3.82;100.00;98693.88;6107560;19;19998;-71
2024/03/08 03:29:13;;;;;;;27.40;14.43;;;;;;;-3.86;100.00;98699.03;6108058;19;19995;-70
2024/03/08 03:31:14;;;;;;;26.50;16.08;;;;;;;-3.87;100.00;98691.22;6105939;19;20006;-70
2024/03/08 03:33:16;;;;;;;28.13;13.88;;;;;;;-3.91;100.00;98693.66;6107884;19;20003;-70
2024/03/08 03:35:21;;;;;;;32.85;15.52;;;;;;;-3.91;100.00;98684.72;6106342;19;20002;-71
2024/03/08 03:37:21;;;;;;;26.00;13.48;;;;;;;-3.93;100.00;98692.31;6107315;19;20443;-71
2024/03/08 03:39:22;;;;;;;28.38;14.80;;;;;;;-3.91;100.00;98682.84;6106542;19;20011;-71
2024/03/08 03:41:22;;;;;;;28.13;14.27;;;;;;;-3.92;100.00;98688.53;6106278;19;20003;-71
2024/03/08 03:43:23;;;;;;;27.95;14.60;;;;;;;-3.94;100.00;98685.31;6106551;19;20011;-71
2024/03/08 03:45:24;;;;;;;30.10;14.35;;;;;;;-4.00;100.00;98688.00;6108151;19;20006;-71
2024/03/08 03:47:24;;;;;;;32.67;15.30;;;;;;;-4.05;100.00;98682.66;6106686;19;20006;-70
2024/03/08 03:49:25;;;;;;;34.08;15.77;;;;;;;-4.04;100.00;98684.25;6107171;19;20003;-71
2024/03/08 03:51:25;;;;;;;23.88;12.68;;;;;;;-4.09;100.00;98681.56;6105069;19;20049;-70
2024/03/08 03:53:27;;;;;;;28.55;14.10;;;;;;;-4.12;100.00;98684.03;6107164;19;20542;-70
2024/03/08 03:55:28;;;;;;;26.05;13.48;;;;;;;-4.14;100.00;98675.38;6106695;19;20312;-70
2024/03/08 03:57:28;;;;;;;23.13;12.73;;;;;;;-4.14;100.00;98678.06;6106706;19;20017;-70
2024/03/08 03:59:29;;;;;;;26.45;12.75;;;;;;;-4.16;100.00;98681.06;6107209;19;20017;-70
2024/03/08 04:01:29;;;;;;;27.90;12.88;;;;;;;-4.15;100.00;98679.16;6104869;19;20007;-70
2024/03/08 04:03:29;;;;;;;25.30;13.63;;;;;;;-4.15;100.00;98679.16;6106540;19;20019;-70
2024/03/08 04:05:30;;;;;;;26.50;13.77;;;;;;;-4.18;100.00;98672.44;6107515;19;20026;-70
2024/03/08 04:07:31;;;;;;;28.35;13.65;;;;;;;-4.15;100.00;98679.16;6105843;19;20040;-70
2024/03/08 04:09:31;;;;;;;25.23;13.30;;;;;;;-4.14;100.00;98678.06;6106635;19;20050;-70
2024/03/08 04:11:32;;;;;;;26.80;13.73;;;;;;;-4.16;100.00;98675.66;6104454;19;20414;-70
2024/03/08 04:13:32;;;;;;;31.08;14.73;;;;;;;-4.22;100.00;98676.75;6097275;19;20009;-70
2024/03/08 04:15:33;;;;;;;29.65;15.20;;;;;;;-4.22;100.00;98676.75;6104418;19;20006;-70
2024/03/08 04:17:37;;;;;;;27.27;13.52;;;;;;;-4.25;100.00;98680.84;6106889;19;20536;-70
2024/03/08 04:19:39;;;;;;;30.88;14.02;;;;;;;-4.20;100.00;98674.63;6106734;19;20548;-70
2024/03/08 04:21:39;;;;;;;34.63;16.02;;;;;;;-4.19;100.00;98673.53;6102931;19;20006;-70
2024/03/08 04:23:40;;;;;;;30.85;15.70;;;;;;;-4.22;100.00;98679.47;6105314;19;20313;-70
2024/03/08 04:25:42;;;;;;;29.45;14.48;;;;;;;-4.21;100.00;98673.00;6110887;19;20014;-70
2024/03/08 04:27:42;;;;;;;32.88;16.90;;;;;;;-4.12;100.00;98670.53;6111108;19;20003;-70
2024/03/08 04:29:42;;;;;;;27.10;14.45;;;;;;;-4.21;100.00;98662.19;6111663;19;20098;-70
2024/03/08 04:31:43;;;;;;;31.13;15.27;;;;;;;-4.22;100.00;98665.94;6107955;19;20006;-70
2024/03/08 04:33:44;;;;;;;29.92;15.27;;;;;;;-4.28;100.00;98656.28;6109284;19;20471;-70
2024/03/08 04:35:45;;;;;;;35.85;14.93;;;;;;;-4.21;100.00;98666.78;6111088;19;20486;-70
2024/03/08 04:37:46;;;;;;;29.38;14.07;;;;;;;-4.25;100.00;98658.41;6111174;19;20019;-70
2024/03/08 04:39:46;;;;;;;32.03;14.95;;;;;;;-4.28;100.00;98670.59;6111003;19;20454;-70
2024/03/08 04:41:47;;;;;;;28.38;14.30;;;;;;;-4.30;100.00;98658.44;6109742;19;20486;-70
2024/03/08 04:43:47;;;;;;;32.83;15.63;;;;;;;-4.30;100.00;98655.75;6109999;19;20007;-70
2024/03/08 04:45:48;;;;;;;28.02;14.05;;;;;;;-4.33;100.00;98664.38;6110564;19;20393;-70
2024/03/08 04:47:48;;;;;;;33.60;15.02;;;;;;;-4.35;100.00;98661.97;6110198;19;20335;-70
2024/03/08 04:49:50;;;;;;;33.15;15.48;;;;;;;-4.36;100.00;98662.25;6110912;19;20399;-70
2024/03/08 04:51:50;;;;;;;35.00;15.70;;;;;;;-4.38;100.00;98661.72;6107912;19;20029;-70
2024/03/08 04:53:50;;;;;;;28.77;13.75;;;;;;;-4.44;100.00;98666.31;6111550;19;20003;-70
2024/03/08 04:55:51;;;;;;;31.73;15.90;;;;;;;-4.53;100.00;98657.97;6111179;19;20003;-70
2024/03/08 04:57:51;;;;;;;31.63;14.32;;;;;;;-4.58;100.00;98663.38;6110383;19;20007;-70
2024/03/08 04:59:51;;;;;;;33.45;14.95;;;;;;;-4.60;100.00;98659.34;6110807;19;20067;-70
2024/03/08 05:01:52;;;;;;;27.17;14.40;;;;;;;-4.58;100.00;98657.19;6109880;19;20027;-70
2024/03/08 05:03:55;;;;;;;29.27;14.85;;;;;;;-4.61;100.00;98657.75;6110184;19;20003;-70
2024/03/08 05:05:56;;;;;;;32.83;15.60;;;;;;;-4.66;100.00;98655.84;6109715;19;20020;-70
2024/03/08 05:07:56;;;;;;;26.35;13.68;;;;;;;-4.65;100.00;98660.16;6110597;19;20017;-70
2024/03/08 05:09:56;;;;;;;33.42;15.18;;;;;;;-4.63;100.00;98652.63;6111512;19;20733;-70
2024/03/08 05:11:58;;;;;;;29.63;15.25;;;;;;;-4.64;100.00;98659.09;6108399;19;20084;-70
2024/03/08 05:13:59;;;;;;;30.80;15.05;;;;;;;-4.64;100.00;98660.97;6105361;19;20443;-70
2024/03/08 05:15:59;;;;;;;31.10;14.27;;;;;;;-4.67;100.00;98654.25;6096803;19;20019;-70
2024/03/08 05:18:00;;;;;;;31.23;15.93;;;;;;;-4.70;100.00;98654.81;6096562;19;20050;-70
2024/03/08 05:20:00;;;;;;;30.40;15.13;;;;;;;-4.74;100.00;98642.91;6094346;19;20013;-70
2024/03/08 05:22:00;;;;;;;38.67;15.18;;;;;;;-4.73;100.00;98654.53;6094433;19;20022;-70
2024/03/08 05:24:01;;;;;;;32.00;13.88;;;;;;;-4.72;100.00;98651.53;6096826;19;20023;-70
2024/03/08 05:26:01;;;;;;;30.13;14.27;;;;;;;-4.76;100.00;98655.88;6095850;19;20501;-70
2024/03/08 05:28:01;;;;;;;30.30;13.60;;;;;;;-4.81;100.00;98645.91;6095776;19;20581;-71
2024/03/08 05:30:04;;;;;;;26.23;13.70;;;;;;;-4.85;100.00;98654.84;6092358;19;20466;-70
2024/03/08 05:32:04;;;;;;;32.53;15.45;;;;;;;-4.92;100.00;98648.91;6092145;19;20003;-70
2024/03/08 05:34:04;;;;;;;31.00;14.77;;;;;;;-4.93;100.00;98650.00;6094784;19;20027;-70
2024/03/08 05:36:05;;;;;;;31.95;14.02;;;;;;;-4.96;100.00;98648.66;6095317;19;20003;-70
2024/03/08 05:38:06;;;;;;;30.38;14.52;;;;;;;-4.96;100.00;98648.66;6096935;19;20039;-70
2024/03/08 05:40:09;;;;;;;29.88;15.07;;;;;;;-4.97;100.00;98649.72;6095835;19;20038;-71
2024/03/08 05:42:10;;;;;;;31.88;14.32;;;;;;;-5.05;100.00;98652.97;6094385;19;20353;-70
2024/03/08 05:44:10;;;;;;;30.67;15.15;;;;;;;-4.98;100.00;98650.00;6096068;19;20007;-70
2024/03/08 05:46:13;;;;;;;34.20;15.73;;;;;;;-4.97;100.00;98651.59;6095633;19;20335;-70
2024/03/08 05:48:13;;;;;;;32.17;15.90;;;;;;;-4.98;100.00;98652.69;6093921;19;20007;-70
2024/03/08 05:50:15;;;;;;;34.80;15.82;;;;;;;-5.02;100.00;98649.75;6095671;19;19994;-70
2024/03/08 05:52:16;;;;;;;39.08;16.92;;;;;;;-4.96;100.00;98647.84;6094811;19;20002;-70
2024/03/08 05:54:16;;;;;;;31.00;15.68;;;;;;;-4.94;100.00;98642.97;6094778;19;19994;-70
2024/03/08 05:56:16;;;;;;;37.33;16.15;;;;;;;-4.93;100.00;98658.09;6094639;19;20017;-70
2024/03/08 05:58:16;;;;;;;31.27;15.20;;;;;;;-4.91;100.00;98645.94;6094535;19;20506;-70
2024/03/08 06:00:18;;;;;;;31.98;16.40;;;;;;;-4.97;100.00;98638.91;6095744;19;20071;-70
2024/03/08 06:02:19;;;;;;;37.83;16.10;;;;;;;-4.97;100.00;98640.81;6092238;19;20801;-70
2024/03/08 06:04:19;;;;;;;33.05;16.95;;;;;;;-4.91;100.00;98647.81;6095770;19;20334;-70
2024/03/08 06:06:21;;;;;;;29.17;15.82;;;;;;;-4.90;100.00;98655.63;6095997;19;19999;-70
2024/03/08 06:08:21;;;;;;;35.97;16.58;;;;;;;-4.95;100.00;98652.97;6093730;19;20349;-70
2024/03/08 06:10:22;;;;;;;41.47;18.45;;;;;;;-4.97;100.00;98655.09;6096021;19;20030;-70
2024/03/08 06:12:24;;;;;;;36.60;16.55;;;;;;;-4.97;100.00;98659.69;6094621;19;20339;-70
2024/03/08 06:14:24;;;;;;;34.45;15.52;;;;;;;-4.89;100.00;98664.53;6102588;19;20447;-71
2024/03/08 06:16:24;;;;;;;37.22;16.98;;;;;;;-4.92;100.00;98659.69;6109396;19;20003;-70
2024/03/08 06:18:24;;;;;;;38.00;16.92;;;;;;;-4.94;100.00;98662.69;6109820;19;20324;-70
2024/03/08 06:20:26;;;;;;;37.75;16.45;;;;;;;-4.88;100.00;98655.34;6110544;19;20343;-71
2024/03/08 06:22:26;;;;;;;39.60;18.00;;;;;;;-4.93;100.00;98658.09;6108635;19;20018;-70
2024/03/08 06:24:26;;;;;;;40.97;17.75;;;;;;;-4.94;100.00;98649.19;6109908;19;20009;-70
2024/03/08 06:26:28;;;;;;;35.30;17.02;;;;;;;-4.88;100.00;98655.34;6105273;19;20010;-70
2024/03/08 06:28:28;;;;;;;37.15;16.98;;;;;;;-4.84;100.00;98657.25;6108239;19;20015;-70
2024/03/08 06:30:29;;;;;;;36.35;17.95;;;;;;;-4.72;100.00;98656.94;6108333;19;20372;-70
2024/03/08 06:32:29;;;;;;;40.38;18.23;;;;;;;-4.63;100.00;98649.94;6107066;19;20044;-70
2024/03/08 06:34:29;;;;;;;39.88;17.73;;;;;;;-4.61;100.00;98655.84;6106474;19;20044;-71
2024/03/08 06:36:29;;;;;;;36.22;17.70;;;;;;;-4.62;100.00;98654.25;6109696;19;20043;-71
2024/03/08 06:38:30;;;;;;;34.83;17.80;;;;;;;-4.59;100.00;98660.97;6107853;19;20359;-71
2024/03/08 06:40:30;;;;;;;37.13;18.20;;;;;;;-4.56;100.00;98657.72;6110493;19;20349;-71
2024/03/08 06:42:35;;;;;;;39.83;18.95;;;;;;;-4.50;100.00;98648.50;6107427;19;20006;-71
2024/03/08 06:44:35;;;;;;;39.42;18.30;;;;;;;-4.41;100.00;98662.25;6110610;19;20066;-70
2024/03/08 06:46:36;;;;;;;40.35;19.40;;;;;;;-4.39;100.00;98654.69;6105143;19;20009;-70
2024/03/08 06:48:37;;;;;;;36.78;18.98;;;;;;;-4.32;100.00;98644.38;6107601;19;20371;-71
2024/03/08 06:50:37;;;;;;;43.35;19.92;;;;;;;-4.32;100.00;98641.69;6106117;19;20010;-70
2024/03/08 06:52:38;;;;;;;41.75;20.67;;;;;;;-4.39;100.00;98655.47;6107370;19;20010;-70
2024/03/08 06:54:38;;;;;;;40.80;19.48;;;;;;;-4.40;100.00;98655.78;6109572;19;20006;-70
2024/03/08 06:56:39;;;;;;;44.28;20.38;;;;;;;-4.43;100.00;98650.94;6109716;19;20026;-71
2024/03/08 06:58:40;;;;;;;45.58;20.02;;;;;;;-4.46;100.00;98648.78;6108717;19;20459;-71
2024/03/08 07:00:40;;;;;;;39.90;19.95;;;;;;;-4.43;100.00;98651.72;6109452;19;20007;-71
2024/03/08 07:02:41;;;;;;;42.70;17.70;;;;;;;-4.39;100.00;98641.16;6105421;19;20082;-71
2024/03/08 07:04:42;;;;;;;42.17;19.50;;;;;;;-4.35;100.00;98647.66;6107245;19;20002;-71
2024/03/08 07:06:42;;;;;;;42.85;20.10;;;;;;;-4.34;100.00;98649.28;6109735;19;20017;-71
2024/03/08 07:08:43;;;;;;;41.30;19.38;;;;;;;-4.29;100.00;98643.84;6109715;19;20010;-71
2024/03/08 07:10:45;;;;;;;46.47;20.02;;;;;;;-4.21;100.00;98640.56;6104492;19;20388;-71
2024/03/08 07:12:46;;;;;;;44.20;20.58;;;;;;;-4.12;100.00;98643.50;6103074;19;20003;-71
2024/03/08 07:14:46;;;;;;;40.00;19.35;;;;;;;-4.09;100.00;98632.94;6108368;19;20455;-71
2024/03/08 07:16:47;;;;;;;40.88;19.60;;;;;;;-4.05;100.00;98639.41;6110450;19;20435;-71
2024/03/08 07:18:47;;;;;;;43.58;20.08;;;;;;;-4.04;100.00;98642.91;6109189;19;20007;-70
2024/03/08 07:20:49;;;;;;;48.40;22.70;;;;;;;-4.02;100.00;98632.63;6108629;19;20287;-71
2024/03/08 07:22:52;;;;;;;40.13;20.08;;;;;;;-4.00;100.00;98633.97;6108236;19;20006;-69
2024/03/08 07:25:10;;;;;;;55.15;26.33;;;;;;;-3.93;100.00;98630.94;6109317;19;20007;-71
2024/03/08 07:27:11;;;;;;;52.35;27.30;;;;;;;-3.89;100.00;98637.41;6108927;19;20003;-71
2024/03/08 07:29:12;;;;;;;47.13;23.25;;;;;;;-3.86;100.00;98619.84;6109556;19;20034;-71
2024/03/08 07:33:15;;;;;;;47.00;22.45;;;;;;;-3.76;100.00;98630.56;6109974;19;20002;-71
2024/03/08 07:35:18;;;;;;;44.05;21.33;;;;;;;-3.70;100.00;98624.06;6109276;19;20007;-71
2024/03/08 07:37:20;;;;;;;50.00;20.23;;;;;;;-3.67;100.00;98621.56;6108468;19;20026;-71
2024/03/08 07:39:23;;;;;;;43.13;21.43;;;;;;;-3.58;100.00;98613.66;6108950;19;20369;-71
2024/03/08 07:41:23;;;;;;;40.72;21.10;;;;;;;-3.49;100.00;98624.69;6109400;19;19999;-71
2024/03/08 07:43:24;;;;;;;38.58;20.08;;;;;;;-3.41;100.00;98613.25;6107289;19;20455;-71
2024/03/08 07:45:25;;;;;;;41.40;19.88;;;;;;;-3.38;100.00;98618.13;6108056;19;19999;-71
2024/03/08 07:47:26;;;;;;;43.10;21.00;;;;;;;-3.35;100.00;98612.13;6106154;19;20003;-71
2024/03/08 07:49:26;;;;;;;41.38;20.83;;;;;;;-3.31;100.00;98601.53;6109051;19;20427;-71
2024/03/08 07:51:26;;;;;;;44.05;21.50;;;;;;;-3.25;100.00;98598.50;6107552;19;20022;-71
2024/03/08 07:53:27;;;;;;;42.67;20.45;;;;;;;-3.19;100.00;98600.09;6109462;19;20492;-71
2024/03/08 07:55:28;;;;;;;39.47;19.25;;;;;;;-3.13;100.00;98596.25;6108407;19;20006;-71
2024/03/08 07:57:29;;;;;;;41.87;18.77;;;;;;;-3.07;100.00;98599.69;6108760;19;19999;-71
2024/03/08 07:59:30;;;;;;;41.50;19.00;;;;;;;-3.01;100.00;98589.63;6107762;19;20460;-71
2024/03/08 08:01:31;;;;;;;39.83;19.80;;;;;;;-2.97;100.00;98586.06;6107973;19;20003;-71
2024/03/08 08:03:31;;;;;;;41.72;20.55;;;;;;;-2.90;100.00;98593.84;6107381;19;20003;-71
2024/03/08 08:05:35;;;;;;;43.53;20.80;;;;;;;-2.77;100.00;98592.34;6108378;19;20495;-71
2024/03/08 08:07:36;;;;;;;40.95;20.42;;;;;;;-2.69;100.00;98595.22;6108145;19;20007;-71
2024/03/08 08:09:37;;;;;;;54.65;24.40;;;;;;;-2.60;100.00;98587.28;6108167;19;20007;-71
2024/03/08 08:11:38;;;;;;;70.25;27.15;;;;;;;-2.54;100.00;98583.41;6105995;19;20002;-71
2024/03/08 08:13:39;;;;;;;57.78;24.75;;;;;;;-2.41;100.00;98584.59;6106402;19;20091;-71
2024/03/08 08:15:39;;;;;;;55.25;26.05;;;;;;;-2.36;100.00;98582.63;6107814;19;20006;-71
2024/03/08 08:17:39;;;;;;;56.53;26.90;;;;;;;-2.27;100.00;98585.50;6108281;19;20039;-71
2024/03/08 08:19:43;;;;;;;49.80;24.67;;;;;;;-2.18;100.00;98581.03;6108680;19;20030;-71
2024/03/08 08:21:43;;;;;;;59.15;26.17;;;;;;;-2.10;100.00;98571.44;6104650;19;20002;-71
2024/03/08 08:23:43;;;;;;;78.25;29.80;;;;;;;-1.98;100.00;98569.13;6107990;19;20014;-71
2024/03/08 08:25:44;;;;;;;60.97;25.67;;;;;;;-1.84;100.00;98580.00;6108062;19;20439;-71
2024/03/08 08:27:44;;;;;;;54.10;24.42;;;;;;;-1.78;100.00;98576.13;6107307;19;20020;-71
2024/03/08 08:29:46;;;;;;;55.13;24.90;;;;;;;-1.70;100.00;98576.25;6108177;19;20006;-71
2024/03/08 08:31:47;;;;;;;53.20;24.80;;;;;;;-1.66;100.00;98568.31;6106140;19;20012;-71
2024/03/08 08:33:48;;;;;;;48.25;23.10;;;;;;;-1.52;100.00;98568.38;6108540;19;20248;-71
2024/03/08 08:35:52;;;;;;;44.50;21.77;;;;;;;-1.44;100.00;98573.13;6106632;19;20398;-71
2024/03/08 08:37:53;;;;;;;45.80;21.00;;;;;;;-1.38;100.00;98569.25;6106604;19;20015;-71
2024/03/08 08:39:54;;;;;;;50.88;25.63;;;;;;;-1.32;100.00;98568.06;6106527;19;20013;-71
2024/03/08 08:41:54;;;;;;;54.08;29.67;;;;;;;-1.28;100.00;98560.91;6101486;19;20005;-71
2024/03/08 08:43:54;;;;;;;54.30;28.98;;;;;;;-1.19;100.00;98558.31;6104243;19;20011;-71
2024/03/08 08:45:55;;;;;;;50.92;24.35;;;;;;;-1.10;100.00;98567.38;6102436;19;20344;-71
2024/03/08 08:47:56;;;;;;;55.85;25.15;;;;;;;-1.03;100.00;98564.28;6102943;19;20007;-71
2024/03/08 08:49:56;;;;;;;46.88;23.33;;;;;;;-1.00;100.00;98569.09;6102987;19;20522;-71
2024/03/08 08:51:58;;;;;;;45.78;22.35;;;;;;;-0.97;100.00;98558.47;6103551;19;20425;-71
2024/03/08 08:53:58;;;;;;;43.85;22.23;;;;;;;-0.90;100.00;98553.44;6106339;19;20124;-71
2024/03/08 08:56:01;;;;;;;46.33;22.15;;;;;;;-0.79;100.00;98548.59;6104748;19;20042;-71
2024/03/08 08:58:03;;;;;;;46.78;21.40;;;;;;;-0.71;100.00;98555.25;6105146;19;20455;-71
2024/03/08 09:00:07;;;;;;;44.03;20.20;;;;;;;-0.60;100.00;98543.84;6105231;19;20387;-71
2024/03/08 09:02:08;;;;;;;44.63;21.95;;;;;;;-0.53;100.00;98538.00;6105234;19;20011;-71
2024/03/08 09:04:11;;;;;;;41.65;21.85;;;;;;;-0.44;100.00;98532.66;6105125;19;20034;-70
2024/03/08 09:06:11;;;;;;;43.05;21.15;;;;;;;-0.32;100.00;98530.25;6097478;19;20026;-70
2024/03/08 09:08:12;;;;;;;43.55;21.50;;;;;;;-0.23;100.00;98531.13;6098765;19;20002;-71
2024/03/08 09:10:14;;;;;;;48.13;20.98;;;;;;;-0.05;100.00;98519.28;6105019;19;20007;-71
2024/03/08 09:12:14;;;;;;;48.88;22.55;;;;;;;0.14;100.00;98518.31;6108807;19;20364;-71